Time;durP1;ratioP1;P1;durP2;ratioP2;P2;SDS_P1;SDS_P2;PMS_P1;PMS_P2;Temp;Humidity;BMP_temperature;BMP_pressure;BME280_temperature;BME280_humidity;BME280_pressure;Samples;Min_cycle;Max_cycle;Signal;HPM_P1;HPM_P2
2023/03/23 00:00:22;;;;;;;31.83;13.20;;;5.90;99.90;;;;;;4417635;28;659471;-64
2023/03/23 00:03:09;;;;;;;38.10;14.37;;;5.90;99.90;;;;;;4427584;28;658928;-64
2023/03/23 00:05:59;;;;;;;30.92;12.68;;;5.90;99.90;;;;;;4413200;28;658873;-64
2023/03/23 00:08:47;;;;;;;29.17;13.63;;;5.90;99.90;;;;;;4419300;28;658926;-64
2023/03/23 00:11:34;;;;;;;51.67;19.63;;;5.90;99.90;;;;;;4430042;28;658505;-64
2023/03/23 00:14:22;;;;;;;69.33;25.83;;;5.90;99.90;;;;;;4412135;28;658649;-64
2023/03/23 00:17:14;;;;;;;60.93;24.03;;;5.90;99.90;;;;;;4420838;28;658688;-64
2023/03/23 00:20:04;;;;;;;49.57;21.03;;;5.80;99.90;;;;;;4405481;28;658893;-64
2023/03/23 00:22:51;;;;;;;38.90;17.37;;;5.80;99.90;;;;;;4412881;28;658686;-64
2023/03/23 00:25:39;;;;;;;37.50;16.67;;;5.80;99.90;;;;;;4438708;28;658014;-64
2023/03/23 00:28:27;;;;;;;45.40;19.97;;;5.80;99.90;;;;;;4414485;28;659583;-64
2023/03/23 00:31:14;;;;;;;45.10;19.77;;;5.80;99.90;;;;;;4428920;28;660391;-64
2023/03/23 00:34:04;;;;;;;85.17;37.10;;;5.80;99.90;;;;;;4419288;28;658849;-64
2023/03/23 00:36:53;;;;;;;88.37;37.97;;;5.70;99.90;;;;;;4394341;28;658413;-64
2023/03/23 00:39:45;;;;;;;136.07;57.43;;;5.70;99.90;;;;;;4418365;28;658725;-64
2023/03/23 00:42:36;;;;;;;49.40;22.35;;;5.70;99.90;;;;;;4405166;28;661571;-64
2023/03/23 00:45:23;;;;;;;70.07;29.50;;;5.70;99.90;;;;;;4407091;28;659648;-64
2023/03/23 00:48:12;;;;;;;50.77;21.73;;;5.70;99.90;;;;;;4405290;28;658710;-64
2023/03/23 00:51:01;;;;;;;48.20;22.13;;;5.70;99.90;;;;;;4419821;28;658769;-64
2023/03/23 00:53:48;;;;;;;30.87;15.63;;;5.70;99.90;;;;;;4404278;28;659580;-64
2023/03/23 00:56:35;;;;;;;40.70;15.40;;;5.70;99.90;;;;;;4408221;28;658426;-64
2023/03/23 00:59:23;;;;;;;72.20;30.40;;;5.70;99.90;;;;;;4434757;28;659765;-64
2023/03/23 01:02:10;;;;;;;83.90;34.70;;;5.70;99.90;;;;;;4416023;28;658979;-65
2023/03/23 01:04:58;;;;;;;74.77;28.90;;;5.70;99.90;;;;;;4425677;28;659475;-64
2023/03/23 01:07:48;;;;;;;34.17;16.07;;;5.70;99.90;;;;;;4429978;28;658668;-64
2023/03/23 01:10:38;;;;;;;44.60;20.50;;;5.80;99.90;;;;;;4412909;28;658686;-64
2023/03/23 01:13:25;;;;;;;29.27;14.13;;;5.90;99.90;;;;;;4407965;28;659089;-64
2023/03/23 01:16:13;;;;;;;31.47;14.33;;;5.90;99.90;;;;;;4414203;28;659711;-64
2023/03/23 01:19:00;;;;;;;27.50;13.37;;;6.00;99.90;;;;;;4412408;28;658697;-64
2023/03/23 01:21:47;;;;;;;21.83;10.87;;;6.00;99.90;;;;;;4423114;28;659543;-64
2023/03/23 01:24:37;;;;;;;25.57;12.37;;;6.10;99.90;;;;;;4415482;28;658843;-64
2023/03/23 01:27:24;;;;;;;24.80;10.97;;;6.20;99.90;;;;;;4416160;28;658600;-64
2023/03/23 01:30:12;;;;;;;21.70;12.00;;;6.20;99.90;;;;;;4401477;28;658789;-65
2023/03/23 01:33:00;;;;;;;26.00;11.47;;;6.30;99.90;;;;;;4416693;28;658898;-64
2023/03/23 01:35:47;;;;;;;24.13;11.67;;;6.30;99.90;;;;;;4436155;28;659120;-64
2023/03/23 01:38:35;;;;;;;37.53;13.80;;;6.30;99.90;;;;;;4432454;28;658576;-64
2023/03/23 01:41:24;;;;;;;22.43;11.17;;;6.30;99.90;;;;;;4429889;28;658482;-64
2023/03/23 01:44:44;;;;;;;20.00;11.00;;;6.30;99.90;;;;;;4408128;28;659024;-64
2023/03/23 01:47:32;;;;;;;19.90;9.83;;;6.40;99.90;;;;;;4379054;28;659728;-64
2023/03/23 01:50:20;;;;;;;17.30;8.20;;;6.40;99.90;;;;;;4433835;28;658869;-64
2023/03/23 01:53:09;;;;;;;19.80;8.93;;;6.40;99.90;;;;;;4406490;28;657309;-64
2023/03/23 01:55:56;;;;;;;18.33;9.63;;;6.50;99.90;;;;;;4417274;28;657607;-65
2023/03/23 01:58:45;;;;;;;24.47;10.33;;;6.50;99.90;;;;;;4441252;28;658454;-64
2023/03/23 02:01:40;;;;;;;18.67;10.17;;;6.50;99.90;;;;;;4402026;28;660266;-64
2023/03/23 02:04:27;;;;;;;33.13;12.30;;;6.50;99.90;;;;;;4411061;28;659265;-64
2023/03/23 02:07:14;;;;;;;89.43;28.83;;;6.50;99.90;;;;;;4425601;28;660804;-64
2023/03/23 02:10:01;;;;;;;35.33;15.33;;;6.50;99.90;;;;;;4415522;28;658201;-64
2023/03/23 02:12:49;;;;;;;32.83;14.73;;;6.50;99.90;;;;;;4419700;28;658483;-64
2023/03/23 02:15:50;;;;;;;34.77;14.63;;;6.50;99.90;;;;;;4418371;28;658572;-64
2023/03/23 02:18:48;;;;;;;24.67;12.10;;;6.50;99.90;;;;;;4383314;28;659802;-64
2023/03/23 02:22:06;;;;;;;37.53;15.03;;;6.50;99.90;;;;;;4386359;28;658547;-65
2023/03/23 02:24:59;;;;;;;74.63;25.87;;;6.50;99.90;;;;;;4412276;28;659221;-65
2023/03/23 02:28:05;;;;;;;99.03;35.20;;;6.50;99.90;;;;;;4419290;28;659767;-64
2023/03/23 02:31:29;;;;;;;66.40;25.93;;;6.50;99.90;;;;;;4392000;28;658819;-65
2023/03/23 02:34:18;;;;;;;37.97;17.83;;;6.50;99.90;;;;;;4414756;28;659327;-64
2023/03/23 02:37:07;;;;;;;87.03;32.80;;;6.50;99.90;;;;;;4413422;28;658600;-64
2023/03/23 02:39:56;;;;;;;44.47;18.98;;;6.50;99.90;;;;;;4428232;28;659310;-64
2023/03/23 02:42:44;;;;;;;34.40;16.10;;;6.50;99.90;;;;;;4413077;28;659608;-64
2023/03/23 02:45:32;;;;;;;33.30;15.87;;;6.50;99.90;;;;;;4415546;28;659614;-64
2023/03/23 02:48:20;;;;;;;22.37;12.10;;;6.50;99.90;;;;;;4436125;28;659237;-64
2023/03/23 02:51:09;;;;;;;25.50;12.27;;;6.50;99.90;;;;;;4402378;28;659252;-64
2023/03/23 02:53:56;;;;;;;24.03;11.83;;;6.50;99.90;;;;;;4412648;28;658798;-64
2023/03/23 02:56:44;;;;;;;22.93;10.70;;;6.40;99.90;;;;;;4427354;28;659517;-64
2023/03/23 02:59:32;;;;;;;25.87;11.27;;;6.40;99.90;;;;;;4392496;28;658903;-64
2023/03/23 03:02:19;;;;;;;30.80;11.50;;;6.50;99.90;;;;;;4430736;28;659049;-64
2023/03/23 03:05:11;;;;;;;29.33;12.73;;;6.40;99.90;;;;;;4398960;28;658902;-65
2023/03/23 03:08:14;;;;;;;43.70;17.17;;;6.50;99.90;;;;;;4411517;28;660073;-64
2023/03/23 03:11:04;;;;;;;65.80;24.03;;;6.50;99.90;;;;;;4417363;28;659032;-64
2023/03/23 03:13:52;;;;;;;57.53;23.40;;;6.40;99.90;;;;;;4404956;28;658873;-65
2023/03/23 03:16:42;;;;;;;114.90;37.83;;;6.40;99.90;;;;;;4418749;28;658539;-64
2023/03/23 03:19:31;;;;;;;67.90;24.95;;;6.40;99.90;;;;;;4438004;28;659614;-64
2023/03/23 03:22:18;;;;;;;129.73;40.13;;;6.40;99.90;;;;;;4416779;28;658830;-64
2023/03/23 03:25:08;;;;;;;114.73;37.37;;;6.40;99.90;;;;;;4417746;28;659463;-64
2023/03/23 03:27:56;;;;;;;101.70;32.80;;;6.30;99.90;;;;;;4420605;28;659400;-64
2023/03/23 03:30:44;;;;;;;47.03;18.20;;;6.30;99.90;;;;;;4418908;28;660248;-64
2023/03/23 03:33:33;;;;;;;36.60;15.83;;;6.40;99.90;;;;;;4415745;28;658909;-64
2023/03/23 03:36:21;;;;;;;31.57;15.03;;;6.30;99.90;;;;;;4421053;28;658738;-65
2023/03/23 03:39:10;;;;;;;23.20;13.37;;;6.40;99.90;;;;;;4436714;28;659304;-64
2023/03/23 03:41:58;;;;;;;34.23;14.30;;;6.40;99.90;;;;;;4414280;28;659971;-65
2023/03/23 03:44:45;;;;;;;30.40;14.20;;;6.40;99.90;;;;;;4417905;28;659092;-65
2023/03/23 03:47:33;;;;;;;88.03;35.13;;;6.40;99.90;;;;;;4425614;28;659983;-64
2023/03/23 03:50:20;;;;;;;84.07;36.72;;;6.40;99.90;;;;;;4423500;28;658991;-64
2023/03/23 03:53:07;;;;;;;82.83;35.47;;;6.40;99.90;;;;;;4439084;28;659874;-64
2023/03/23 03:55:59;;;;;;;78.87;31.90;;;6.40;99.90;;;;;;4422119;28;658874;-64
2023/03/23 03:58:48;;;;;;;84.30;34.33;;;6.30;99.90;;;;;;4407580;28;659453;-64
2023/03/23 04:01:35;;;;;;;69.20;30.27;;;6.30;99.90;;;;;;4416010;28;658602;-65
2023/03/23 04:04:22;;;;;;;49.03;22.67;;;6.30;99.90;;;;;;4431557;28;659891;-64
2023/03/23 04:07:10;;;;;;;69.23;31.57;;;6.30;99.90;;;;;;4435370;28;658737;-64
2023/03/23 04:09:58;;;;;;;51.87;23.97;;;6.30;99.90;;;;;;4431230;28;659893;-64
2023/03/23 04:12:45;;;;;;;40.90;19.70;;;6.30;99.90;;;;;;4420143;28;659064;-65
2023/03/23 04:15:34;;;;;;;64.20;25.83;;;6.30;99.90;;;;;;4438299;28;659213;-64
2023/03/23 04:18:21;;;;;;;65.40;23.20;;;6.30;99.90;;;;;;4403985;28;658689;-64
2023/03/23 04:21:08;;;;;;;54.83;22.43;;;6.30;99.90;;;;;;4417913;28;660071;-64
2023/03/23 04:23:58;;;;;;;78.73;23.83;;;6.30;99.90;;;;;;4409997;28;658726;-65
2023/03/23 04:26:45;;;;;;;40.67;18.53;;;6.30;99.90;;;;;;4412152;28;658804;-64
2023/03/23 04:29:33;;;;;;;34.63;14.53;;;6.20;99.90;;;;;;4438380;28;659782;-64
2023/03/23 04:32:22;;;;;;;31.97;14.47;;;6.20;99.90;;;;;;4418108;28;658971;-64
2023/03/23 04:35:11;;;;;;;27.47;13.40;;;6.20;99.90;;;;;;4433824;28;658886;-64
2023/03/23 04:37:59;;;;;;;32.33;14.00;;;6.20;99.90;;;;;;4409269;28;660002;-65
2023/03/23 04:40:46;;;;;;;41.30;17.53;;;6.20;99.90;;;;;;4417543;28;658533;-64
2023/03/23 04:43:41;;;;;;;44.20;17.60;;;6.30;99.90;;;;;;4435697;28;659423;-64
2023/03/23 04:46:30;;;;;;;181.73;37.53;;;6.30;99.90;;;;;;4395707;28;659363;-64
2023/03/23 04:49:20;;;;;;;138.93;33.70;;;6.20;99.90;;;;;;4411982;28;660104;-64
2023/03/23 04:52:08;;;;;;;136.40;31.87;;;6.20;99.90;;;;;;4419183;28;660424;-64
2023/03/23 04:54:56;;;;;;;107.33;27.50;;;6.20;99.90;;;;;;4425837;28;659617;-64
2023/03/23 04:57:43;;;;;;;78.40;21.73;;;6.30;99.90;;;;;;4426260;28;660295;-64
2023/03/23 05:00:31;;;;;;;34.70;13.57;;;6.20;99.90;;;;;;4411101;28;658429;-64
2023/03/23 05:03:18;;;;;;;35.00;12.43;;;6.30;99.90;;;;;;4435065;28;659851;-64
2023/03/23 05:06:07;;;;;;;92.33;25.10;;;6.40;99.90;;;;;;4423138;28;659552;-64
2023/03/23 05:08:54;;;;;;;42.07;14.57;;;6.40;99.90;;;;;;4444728;28;659600;-64
2023/03/23 05:11:42;;;;;;;31.60;11.87;;;6.40;99.90;;;;;;4418757;28;659204;-64
2023/03/23 05:14:29;;;;;;;30.07;11.93;;;6.40;99.90;;;;;;4434606;28;658608;-64
2023/03/23 05:17:16;;;;;;;73.37;23.50;;;6.50;99.90;;;;;;4419531;28;658694;-65
2023/03/23 05:20:07;;;;;;;78.97;24.93;;;6.50;99.90;;;;;;4440182;28;658862;-64
2023/03/23 05:22:57;;;;;;;80.53;25.13;;;6.60;99.90;;;;;;4418745;28;659836;-65
2023/03/23 05:25:47;;;;;;;66.07;18.40;;;6.60;99.90;;;;;;4417790;28;659054;-64
2023/03/23 05:28:36;;;;;;;45.17;15.73;;;6.70;99.90;;;;;;4396180;28;658801;-64
2023/03/23 05:31:24;;;;;;;42.03;16.13;;;6.70;99.90;;;;;;4410745;28;659016;-64
2023/03/23 05:34:11;;;;;;;48.97;16.23;;;6.80;99.90;;;;;;4417756;28;658953;-64
2023/03/23 05:36:59;;;;;;;90.83;27.97;;;6.90;99.90;;;;;;4440787;28;659211;-65
2023/03/23 05:39:47;;;;;;;96.75;28.33;;;7.10;99.90;;;;;;4413202;28;658762;-64
2023/03/23 05:42:35;;;;;;;115.27;30.70;;;7.30;99.90;;;;;;4439723;28;660243;-64
2023/03/23 05:45:23;;;;;;;104.43;29.03;;;7.40;99.90;;;;;;4414597;28;659977;-64
2023/03/23 05:48:11;;;;;;;52.93;19.80;;;7.60;99.90;;;;;;4414528;28;659704;-64
2023/03/23 05:50:58;;;;;;;75.47;22.43;;;7.70;99.90;;;;;;4434756;28;659451;-64
2023/03/23 05:53:45;;;;;;;149.93;61.63;;;7.90;99.90;;;;;;4413612;28;658462;-64
2023/03/23 05:56:34;;;;;;;104.37;40.57;;;8.10;99.90;;;;;;4437869;28;659842;-65
2023/03/23 05:59:21;;;;;;;31.77;15.70;;;8.30;99.90;;;;;;4413160;28;660860;-65
2023/03/23 06:02:09;;;;;;;37.50;15.60;;;8.50;99.90;;;;;;4435029;28;659096;-64
2023/03/23 06:04:59;;;;;;;91.20;31.57;;;8.80;99.90;;;;;;4399115;28;658643;-65
2023/03/23 06:07:47;;;;;;;63.50;23.97;;;9.00;99.90;;;;;;4408732;28;658874;-65
2023/03/23 06:10:36;;;;;;;26.27;11.33;;;9.20;99.90;;;;;;4437774;28;659136;-65
2023/03/23 06:13:25;;;;;;;28.47;11.20;;;9.60;99.90;;;;;;4405988;28;659689;-64
2023/03/23 06:16:12;;;;;;;17.40;8.80;;;9.80;99.90;;;;;;4415751;28;659448;-64
2023/03/23 06:19:00;;;;;;;20.20;9.07;;;10.10;99.90;;;;;;4433161;28;658222;-65
2023/03/23 06:21:47;;;;;;;27.10;10.63;;;10.40;99.90;;;;;;4413978;28;659636;-64
2023/03/23 06:24:35;;;;;;;12.97;7.33;;;10.60;99.90;;;;;;4435179;28;659749;-64
2023/03/23 06:27:22;;;;;;;32.27;14.03;;;10.80;99.90;;;;;;4420586;28;659590;-65
2023/03/23 06:30:12;;;;;;;14.87;8.47;;;10.90;99.90;;;;;;4431159;28;660198;-64
2023/03/23 06:32:59;;;;;;;18.37;7.50;;;11.10;99.90;;;;;;4409858;28;659547;-69
2023/03/23 06:35:48;;;;;;;13.55;6.80;;;11.30;99.90;;;;;;4410063;28;658714;-70
2023/03/23 06:38:35;;;;;;;14.40;7.40;;;11.60;99.90;;;;;;4393298;28;658607;-70
2023/03/23 06:41:23;;;;;;;13.50;6.80;;;11.80;99.90;;;;;;4430402;28;659464;-69
2023/03/23 06:44:13;;;;;;;9.83;6.30;;;12.10;99.90;;;;;;4417952;28;659711;-69
2023/03/23 06:47:02;;;;;;;10.17;6.13;;;12.30;99.90;;;;;;4432129;28;657718;-69
2023/03/23 06:49:49;;;;;;;17.10;6.67;;;12.60;99.90;;;;;;4432519;28;658203;-69
2023/03/23 06:52:36;;;;;;;9.97;6.20;;;12.80;99.90;;;;;;4403035;28;659310;-69
2023/03/23 06:55:23;;;;;;;13.37;6.90;;;13.00;99.90;;;;;;4438946;28;658980;-69
2023/03/23 06:58:11;;;;;;;13.90;6.30;;;13.10;99.90;;;;;;4412623;28;659367;-69
2023/03/23 07:00:58;;;;;;;13.32;6.07;;;13.30;99.90;;;;;;4424579;28;660441;-69
2023/03/23 07:03:47;;;;;;;10.77;5.50;;;13.30;99.90;;;;;;4413452;28;658897;-69
2023/03/23 07:06:34;;;;;;;8.60;5.00;;;13.40;99.90;;;;;;4438131;28;658678;-70
2023/03/23 07:09:21;;;;;;;7.83;4.90;;;13.40;99.90;;;;;;4417271;28;657610;-69
2023/03/23 07:12:09;;;;;;;10.68;4.60;;;13.30;99.90;;;;;;4435219;28;659095;-69
2023/03/23 07:14:56;;;;;;;8.68;4.70;;;13.40;99.90;;;;;;4402633;28;658663;-69
2023/03/23 07:17:43;;;;;;;7.50;5.00;;;13.40;99.90;;;;;;4433389;28;658154;-70
2023/03/23 07:20:32;;;;;;;8.47;4.80;;;13.60;99.90;;;;;;4412592;28;657189;-69
2023/03/23 07:23:20;;;;;;;8.87;5.00;;;13.60;99.90;;;;;;4433509;28;658013;-70
2023/03/23 07:26:07;;;;;;;9.40;4.27;;;13.70;99.90;;;;;;4414098;28;658528;-69
2023/03/23 07:28:55;;;;;;;7.93;4.33;;;13.80;99.90;;;;;;4409233;28;657966;-69
2023/03/23 07:31:43;;;;;;;7.33;4.50;;;13.80;99.90;;;;;;4428335;28;658272;-69
2023/03/23 07:34:31;;;;;;;7.30;4.50;;;13.90;99.90;;;;;;4403783;28;657837;-69
2023/03/23 07:37:20;;;;;;;6.82;4.32;;;14.00;99.90;;;;;;4434575;28;658599;-69
2023/03/23 07:40:14;;;;;;;10.47;4.60;;;13.90;99.90;;;;;;4413249;28;658794;-70
2023/03/23 07:43:02;;;;;;;8.73;4.77;;;13.90;99.90;;;;;;4413480;28;659173;-69
2023/03/23 07:45:49;;;;;;;6.50;4.07;;;14.00;99.90;;;;;;4432962;28;658040;-69
2023/03/23 07:48:37;;;;;;;10.23;4.63;;;13.90;99.90;;;;;;4413002;28;657335;-69
2023/03/23 07:51:25;;;;;;;9.70;4.50;;;13.90;99.90;;;;;;4438291;28;659199;-69
2023/03/23 07:54:14;;;;;;;7.97;4.50;;;13.80;99.90;;;;;;4418660;28;657685;-69
2023/03/23 07:57:01;;;;;;;8.53;4.50;;;13.90;99.90;;;;;;4411661;28;657544;-69
2023/03/23 07:59:48;;;;;;;8.50;4.80;;;13.80;99.90;;;;;;4436345;28;658226;-69
2023/03/23 08:02:36;;;;;;;9.03;4.57;;;13.80;99.90;;;;;;4418177;28;657713;-69
2023/03/23 08:05:24;;;;;;;10.47;4.50;;;14.00;99.90;;;;;;4435913;28;658871;-69
2023/03/23 08:08:12;;;;;;;7.57;4.10;;;14.00;99.90;;;;;;4410263;28;659897;-69
2023/03/23 08:11:01;;;;;;;14.57;4.47;;;13.90;99.90;;;;;;4425105;28;657853;-69
2023/03/23 08:13:48;;;;;;;8.33;4.27;;;13.90;99.90;;;;;;4398274;28;659970;-69
2023/03/23 08:16:35;;;;;;;6.83;4.10;;;14.00;99.90;;;;;;4410610;28;657668;-69
2023/03/23 08:19:22;;;;;;;9.73;4.60;;;14.20;99.90;;;;;;4426954;28;658252;-69
2023/03/23 08:22:10;;;;;;;6.70;4.27;;;14.30;99.90;;;;;;4432808;28;657723;-69
2023/03/23 08:24:57;;;;;;;7.50;4.20;;;14.30;99.90;;;;;;4436878;28;657675;-69
2023/03/23 08:27:47;;;;;;;6.13;4.00;;;14.40;99.90;;;;;;4421575;28;658077;-69
2023/03/23 08:30:36;;;;;;;11.87;4.17;;;14.40;99.90;;;;;;4430897;28;658173;-69
2023/03/23 08:33:23;;;;;;;7.23;4.13;;;14.60;99.90;;;;;;4411626;28;659904;-69
2023/03/23 08:36:10;;;;;;;7.83;4.27;;;14.70;99.90;;;;;;4414943;28;658435;-69
2023/03/23 08:38:57;;;;;;;7.77;4.10;;;14.80;99.90;;;;;;4427272;28;658251;-69
2023/03/23 08:41:46;;;;;;;5.60;3.80;;;14.90;99.90;;;;;;4419220;28;657380;-69
2023/03/23 08:44:35;;;;;;;11.57;4.37;;;15.10;99.90;;;;;;4440173;28;658161;-69
2023/03/23 08:47:22;;;;;;;8.77;4.00;;;15.20;99.90;;;;;;4403939;28;659179;-69
2023/03/23 08:50:12;;;;;;;6.50;3.83;;;15.20;99.90;;;;;;4432328;28;657834;-69
2023/03/23 08:52:59;;;;;;;9.23;4.40;;;15.20;99.90;;;;;;4418833;28;657240;-69
2023/03/23 08:55:47;;;;;;;6.00;3.77;;;15.40;99.90;;;;;;4413979;28;658084;-69
2023/03/23 08:58:34;;;;;;;9.17;3.67;;;15.80;99.90;;;;;;4426589;28;658025;-69
2023/03/23 09:01:24;;;;;;;5.28;3.78;;;16.30;99.90;;;;;;4403112;28;657513;-69
2023/03/23 09:04:11;;;;;;;6.53;3.30;;;16.70;99.90;;;;;;4412152;28;657832;-70
2023/03/23 09:06:58;;;;;;;9.10;3.90;;;17.00;92.40;;;;;;4433864;28;657883;-70
2023/03/23 09:09:46;;;;;;;15.37;5.37;;;17.00;91.00;;;;;;4418304;28;657424;-69
2023/03/23 09:12:34;;;;;;;10.47;3.83;;;17.00;96.00;;;;;;4430903;28;659477;-69
2023/03/23 09:15:22;;;;;;;9.67;3.70;;;17.00;93.70;;;;;;4415716;28;658781;-70
2023/03/23 09:18:11;;;;;;;8.13;4.27;;;17.30;89.10;;;;;;4427249;28;657844;-70
2023/03/23 09:20:58;;;;;;;8.00;3.60;;;17.50;87.60;;;;;;4410385;28;658410;-70
2023/03/23 09:23:46;;;;;;;7.50;3.70;;;17.40;89.20;;;;;;4417987;28;657709;-69
2023/03/23 09:26:33;;;;;;;8.40;4.33;;;17.40;86.40;;;;;;4440217;28;659041;-69
2023/03/23 09:29:21;;;;;;;6.20;3.60;;;17.00;87.90;;;;;;4419901;28;657896;-69
2023/03/23 09:32:08;;;;;;;12.07;4.35;;;16.80;90.20;;;;;;4437683;28;657853;-70
2023/03/23 09:34:57;;;;;;;5.73;3.50;;;17.40;95.20;;;;;;4412554;28;660562;-70
2023/03/23 09:37:45;;;;;;;5.83;3.53;;;18.00;79.50;;;;;;4435069;28;658122;-69
2023/03/23 09:40:48;;;;;;;8.37;4.43;;;18.10;77.50;;;;;;4417739;28;659191;-70
2023/03/23 09:43:43;;;;;;;6.93;3.60;;;18.00;78.70;;;;;;4417192;28;657816;-69
2023/03/23 09:46:47;;;;;;;6.40;3.77;;;18.30;76.20;;;;;;4397350;28;657273;-71
2023/03/23 09:49:35;;;;;;;13.60;4.30;;;18.20;73.00;;;;;;4417314;28;657535;-69
2023/03/23 09:52:24;;;;;;;6.80;3.70;;;18.30;73.50;;;;;;4412626;28;660460;-69
2023/03/23 09:55:14;;;;;;;15.37;4.33;;;18.00;77.30;;;;;;4414979;28;657845;-70
2023/03/23 09:58:03;;;;;;;9.13;4.50;;;18.30;70.80;;;;;;4415625;28;658817;-70
2023/03/23 10:00:56;;;;;;;9.63;4.17;;;18.10;70.60;;;;;;4419312;28;657600;-73
2023/03/23 10:03:44;;;;;;;6.93;3.70;;;18.00;72.50;;;;;;4415193;28;658178;-72
2023/03/23 10:06:31;;;;;;;8.37;3.90;;;18.30;70.10;;;;;;4421569;28;657689;-69
2023/03/23 10:09:20;;;;;;;7.70;4.07;;;18.20;74.90;;;;;;4429178;28;659397;-69
2023/03/23 10:12:14;;;;;;;6.83;4.13;;;18.70;71.00;;;;;;4417795;28;657981;-73
2023/03/23 10:15:09;;;;;;;9.30;3.93;;;19.00;67.40;;;;;;4419338;28;657810;-69
2023/03/23 10:17:58;;;;;;;7.40;3.60;;;19.00;68.00;;;;;;4419894;28;657501;-69
2023/03/23 10:20:49;;;;;;;6.03;3.03;;;19.30;63.60;;;;;;4425777;28;659147;-68
2023/03/23 10:23:44;;;;;;;8.83;3.27;;;19.20;58.80;;;;;;4417434;28;657844;-69
2023/03/23 10:26:43;;;;;;;6.83;3.53;;;18.80;58.80;;;;;;4411421;28;657715;-72
2023/03/23 10:29:31;;;;;;;5.13;2.90;;;18.60;57.70;;;;;;4404382;28;658224;-69
2023/03/23 10:32:20;;;;;;;5.53;3.20;;;18.80;59.60;;;;;;4439639;28;659098;-71
2023/03/23 10:35:10;;;;;;;6.43;3.37;;;18.90;56.60;;;;;;4416173;28;658573;-71
2023/03/23 10:38:00;;;;;;;6.67;3.73;;;19.00;56.40;;;;;;4412129;28;659057;-71
2023/03/23 10:40:50;;;;;;;5.47;2.93;;;19.30;55.60;;;;;;4419697;28;660181;-71
2023/03/23 10:43:39;;;;;;;6.20;3.13;;;19.60;55.10;;;;;;4419362;28;658637;-71
2023/03/23 10:46:42;;;;;;;6.33;3.57;;;19.40;55.40;;;;;;4419969;28;657936;-70
2023/03/23 10:49:32;;;;;;;5.93;3.00;;;19.30;55.50;;;;;;4419503;28;657751;-71
2023/03/23 10:52:32;;;;;;;6.07;2.80;;;19.10;55.40;;;;;;4434494;28;657815;-67
2023/03/23 10:55:22;;;;;;;6.43;3.23;;;18.80;54.10;;;;;;4435672;28;658095;-71
2023/03/23 10:58:11;;;;;;;5.30;3.23;;;18.90;54.40;;;;;;4436490;28;657647;-70
2023/03/23 11:01:01;;;;;;;6.87;3.67;;;19.10;54.20;;;;;;4440825;28;657574;-70
2023/03/23 11:03:50;;;;;;;7.93;3.97;;;19.00;54.40;;;;;;4422108;28;658291;-69
2023/03/23 11:06:42;;;;;;;8.27;3.83;;;19.50;56.10;;;;;;4417664;28;658106;-71
2023/03/23 11:09:36;;;;;;;8.37;3.43;;;19.80;54.20;;;;;;4416595;28;657752;-70
2023/03/23 11:12:23;;;;;;;8.18;3.58;;;19.70;53.60;;;;;;4410947;28;657765;-72
2023/03/23 11:15:22;;;;;;;5.53;3.20;;;19.30;54.10;;;;;;4419952;28;657538;-70
2023/03/23 11:18:12;;;;;;;9.13;3.90;;;18.70;53.60;;;;;;4412995;28;657473;-70
2023/03/23 11:21:01;;;;;;;7.37;3.13;;;18.30;55.80;;;;;;4430634;28;657199;-68
2023/03/23 11:23:50;;;;;;;10.63;3.03;;;18.10;55.60;;;;;;4438713;28;658443;-68
2023/03/23 11:26:39;;;;;;;5.87;1.97;;;18.10;55.60;;;;;;4417316;28;659985;-67
2023/03/23 11:29:27;;;;;;;6.07;2.40;;;17.90;54.20;;;;;;4423254;28;657582;-68
2023/03/23 11:32:15;;;;;;;4.63;2.03;;;17.70;54.50;;;;;;4441346;28;657119;-67
2023/03/23 11:35:05;;;;;;;5.27;2.00;;;17.50;54.60;;;;;;4408920;28;659160;-68
2023/03/23 11:37:53;;;;;;;9.50;2.07;;;17.40;55.20;;;;;;4417893;28;658961;-68
2023/03/23 11:40:45;;;;;;;7.60;2.70;;;17.30;55.20;;;;;;4416167;28;658389;-69
2023/03/23 11:43:32;;;;;;;4.93;2.77;;;17.20;56.40;;;;;;4411795;28;658428;-71
2023/03/23 11:46:28;;;;;;;5.73;2.50;;;17.30;55.60;;;;;;4438634;28;658036;-69
2023/03/23 11:49:21;;;;;;;5.77;2.83;;;17.10;56.90;;;;;;4420622;28;657743;-68
2023/03/23 11:52:14;;;;;;;5.50;2.80;;;17.10;56.40;;;;;;4420069;28;659128;-68
2023/03/23 11:55:05;;;;;;;5.63;2.70;;;17.00;56.80;;;;;;4421693;28;657610;-70
2023/03/23 11:57:52;;;;;;;11.20;2.70;;;17.00;56.60;;;;;;4418741;28;658866;-68
2023/03/23 12:00:41;;;;;;;4.40;2.15;;;17.00;56.60;;;;;;4434433;28;658461;-67
2023/03/23 12:03:40;;;;;;;5.60;2.47;;;16.90;56.30;;;;;;4413524;28;657879;-68
2023/03/23 12:06:33;;;;;;;5.03;2.47;;;16.90;57.80;;;;;;4418909;28;657846;-71
2023/03/23 12:09:32;;;;;;;8.03;2.50;;;16.80;57.40;;;;;;4419120;28;657583;-70
2023/03/23 12:12:23;;;;;;;6.80;2.27;;;16.80;57.90;;;;;;4414891;28;657767;-72
2023/03/23 12:15:19;;;;;;;3.37;1.70;;;16.90;57.60;;;;;;4402228;28;657452;-69
2023/03/23 12:18:10;;;;;;;4.67;1.70;;;16.90;57.50;;;;;;4394738;28;658431;-70
2023/03/23 12:21:01;;;;;;;7.27;2.20;;;16.90;58.40;;;;;;4411332;28;658913;-71
2023/03/23 12:23:52;;;;;;;5.00;2.10;;;16.90;58.40;;;;;;4410796;28;658220;-68
2023/03/23 12:26:45;;;;;;;5.53;2.50;;;16.80;59.30;;;;;;4413745;28;657550;-69
2023/03/23 12:29:44;;;;;;;5.00;2.10;;;16.80;58.90;;;;;;4413772;28;658794;-69
2023/03/23 12:32:41;;;;;;;4.33;2.20;;;16.80;59.30;;;;;;4397011;28;657653;-72
2023/03/23 12:35:34;;;;;;;5.43;1.83;;;16.80;59.40;;;;;;4411661;28;657740;-68
2023/03/23 12:38:30;;;;;;;4.50;2.10;;;16.70;60.30;;;;;;4394915;28;658731;-68
2023/03/23 12:41:18;;;;;;;3.83;2.17;;;16.60;61.00;;;;;;4419095;28;657640;-67
2023/03/23 12:44:09;;;;;;;4.47;1.90;;;16.60;61.10;;;;;;4421178;28;657507;-68
2023/03/23 12:47:14;;;;;;;5.10;2.30;;;16.60;60.00;;;;;;4413396;28;658220;-68
2023/03/23 12:50:03;;;;;;;4.00;2.17;;;16.70;60.50;;;;;;4391868;28;657828;-68
2023/03/23 12:52:54;;;;;;;10.53;2.50;;;16.70;60.70;;;;;;4388634;28;658186;-67
2023/03/23 12:55:45;;;;;;;5.23;2.30;;;16.60;60.90;;;;;;4402783;28;658647;-68
2023/03/23 12:58:33;;;;;;;2.97;1.63;;;16.70;61.00;;;;;;4400772;28;658155;-68
2023/03/23 13:01:25;;;;;;;8.37;2.47;;;16.70;60.60;;;;;;4404295;28;658501;-68
2023/03/23 13:04:14;;;;;;;5.57;2.17;;;16.60;62.40;;;;;;4403894;28;657867;-68
2023/03/23 13:07:02;;;;;;;4.27;2.27;;;16.60;62.20;;;;;;4403655;28;657408;-68
2023/03/23 13:09:54;;;;;;;8.07;2.40;;;16.60;61.70;;;;;;4426441;28;657342;-68
2023/03/23 13:12:42;;;;;;;3.70;2.30;;;16.60;61.50;;;;;;4404338;28;657307;-68
2023/03/23 13:15:34;;;;;;;4.43;2.13;;;16.70;62.30;;;;;;4426765;28;657444;-71
2023/03/23 13:18:28;;;;;;;7.30;2.67;;;16.70;61.70;;;;;;4381553;28;658608;-68
2023/03/23 13:21:18;;;;;;;4.37;1.97;;;16.80;62.70;;;;;;4376508;28;658087;-68
2023/03/23 13:24:07;;;;;;;5.17;2.27;;;16.80;62.60;;;;;;4407604;28;658550;-69
2023/03/23 13:26:57;;;;;;;4.30;2.20;;;16.90;62.00;;;;;;4427185;28;658223;-68
2023/03/23 13:29:46;;;;;;;5.57;2.00;;;16.80;62.50;;;;;;4413037;28;657400;-67
2023/03/23 13:32:36;;;;;;;4.77;1.97;;;16.80;61.70;;;;;;4413035;28;657868;-69
2023/03/23 13:35:25;;;;;;;3.53;2.17;;;16.80;61.20;;;;;;4387470;28;660098;-69
2023/03/23 13:38:15;;;;;;;3.03;1.93;;;16.70;62.20;;;;;;4387109;28;659240;-68
2023/03/23 13:41:09;;;;;;;4.80;2.00;;;16.80;63.20;;;;;;4400417;28;658698;-67
2023/03/23 13:44:06;;;;;;;4.03;2.10;;;16.80;62.50;;;;;;4379815;28;658113;-67
2023/03/23 13:46:59;;;;;;;6.87;2.03;;;16.90;62.50;;;;;;4383706;28;657162;-68
2023/03/23 13:49:47;;;;;;;4.63;1.87;;;17.10;62.40;;;;;;4404752;28;657658;-68
2023/03/23 13:52:47;;;;;;;3.30;2.00;;;17.20;61.60;;;;;;4443003;28;657649;-68
2023/03/23 13:55:43;;;;;;;5.00;2.00;;;17.20;61.50;;;;;;4420057;28;657937;-67
2023/03/23 13:58:31;;;;;;;6.97;2.00;;;17.00;61.40;;;;;;4397825;28;658106;-68
2023/03/23 14:01:21;;;;;;;5.43;2.30;;;17.10;61.60;;;;;;4445837;28;658076;-67
2023/03/23 14:04:11;;;;;;;5.53;2.00;;;17.10;61.90;;;;;;4403912;28;658304;-68
2023/03/23 14:06:59;;;;;;;4.43;2.30;;;17.00;61.40;;;;;;4415479;28;658303;-67
2023/03/23 14:09:48;;;;;;;3.07;1.87;;;17.00;61.90;;;;;;4414605;28;657403;-67
2023/03/23 14:12:35;;;;;;;3.10;1.90;;;17.10;61.40;;;;;;4422808;28;658064;-67
2023/03/23 14:15:23;;;;;;;6.37;2.27;;;17.20;61.80;;;;;;4437229;28;658634;-67
2023/03/23 14:18:14;;;;;;;5.43;2.30;;;17.10;60.50;;;;;;4425413;28;657755;-67
2023/03/23 14:21:01;;;;;;;4.83;1.90;;;17.20;61.00;;;;;;4415713;28;659594;-67
2023/03/23 14:23:49;;;;;;;3.73;2.10;;;17.30;61.10;;;;;;4436390;28;657535;-68